Time;durP1;ratioP1;P1;durP2;ratioP2;P2;SDS_P1;SDS_P2;PMS_P1;PMS_P2;Temp;Humidity;BMP_temperature;BMP_pressure;BME280_temperature;BME280_humidity;BME280_pressure;Samples;Min_cycle;Max_cycle;Signal;HPM_P1;HPM_P2
2022/09/06 00:00:47;;;;;;;1.77;1.20;;;;;;;;;;8324011;28;20155;-58
2022/09/06 00:04:48;;;;;;;1.75;1.17;;;;;;;;;;8327697;28;20028;-57
2022/09/06 00:08:48;;;;;;;1.30;1.20;;;;;;;;;;8323833;28;20021;-57
2022/09/06 00:12:48;;;;;;;1.52;1.40;;;;;;;;;;8326206;28;20120;-58
2022/09/06 00:16:48;;;;;;;1.42;1.33;;;;;;;;;;8323478;28;20036;-58
2022/09/06 00:20:49;;;;;;;1.65;1.20;;;;;;;;;;8326419;28;20471;-57
2022/09/06 00:24:49;;;;;;;1.38;1.27;;;;;;;;;;8325447;28;20031;-58
2022/09/06 00:28:49;;;;;;;3.78;1.67;;;;;;;;;;8326540;28;20028;-57
2022/09/06 00:32:50;;;;;;;1.73;1.60;;;;;;;;;;8326025;28;20046;-57
2022/09/06 00:36:50;;;;;;;1.38;1.27;;;;;;;;;;8326196;28;20271;-58
2022/09/06 00:40:50;;;;;;;2.42;1.50;;;;;;;;;;8323679;28;20036;-59
2022/09/06 00:44:50;;;;;;;2.10;1.33;;;;;;;;;;8324014;28;20029;-59
2022/09/06 00:48:52;;;;;;;2.03;1.45;;;;;;;;;;8325407;28;20033;-58
2022/09/06 00:52:53;;;;;;;1.80;1.60;;;;;;;;;;8325285;28;20097;-57
2022/09/06 00:56:54;;;;;;;1.60;1.50;;;;;;;;;;8325974;28;20119;-58
2022/09/06 01:00:54;;;;;;;2.05;1.40;;;;;;;;;;8322174;28;20036;-57
2022/09/06 01:04:54;;;;;;;8.63;1.92;;;;;;;;;;8325094;28;20847;-57
2022/09/06 01:09:07;;;;;;;5.80;1.80;;;;;;;;;;8331721;28;20549;-57
2022/09/06 01:13:17;;;;;;;7.07;1.90;;;;;;;;;;8327475;28;20407;-57
2022/09/06 01:17:36;;;;;;;8.77;2.00;;;;;;;;;;8331681;28;20029;-56
2022/09/06 01:21:36;;;;;;;3.15;1.85;;;;;;;;;;8325619;28;20033;-56
2022/09/06 01:25:42;;;;;;;3.47;1.92;;;;;;;;;;8329861;28;20439;-56
2022/09/06 01:30:00;;;;;;;3.58;1.70;;;;;;;;;;8329105;28;20056;-58
2022/09/06 01:34:06;;;;;;;8.73;2.10;;;;;;;;;;8329449;28;20043;-56
2022/09/06 01:38:07;;;;;;;11.27;1.88;;;;;;;;;;8326370;28;20037;-57
2022/09/06 01:42:18;;;;;;;4.55;1.63;;;;;;;;;;8328589;28;20013;-58
2022/09/06 01:46:27;;;;;;;4.47;1.80;;;;;;;;;;8328840;28;20033;-56
2022/09/06 01:50:39;;;;;;;3.15;1.52;;;;;;;;;;8330090;28;20021;-56
2022/09/06 01:54:42;;;;;;;3.67;1.70;;;;;;;;;;8328119;28;20041;-57
2022/09/06 01:58:45;;;;;;;4.50;1.52;;;;;;;;;;8329203;28;20579;-57
2022/09/06 02:03:04;;;;;;;1.85;1.48;;;;;;;;;;8328434;28;20691;-56
2022/09/06 02:07:11;;;;;;;2.47;1.67;;;;;;;;;;8332049;28;20139;-57
2022/09/06 02:11:13;;;;;;;2.83;1.33;;;;;;;;;;8332106;28;20051;-58
2022/09/06 02:15:25;;;;;;;3.80;1.50;;;;;;;;;;8328069;28;20045;-58
2022/09/06 02:19:31;;;;;;;3.92;1.63;;;;;;;;;;8328864;28;20814;-57
2022/09/06 02:23:34;;;;;;;3.83;1.42;;;;;;;;;;8326808;28;20028;-57
2022/09/06 02:27:34;;;;;;;1.25;1.15;;;;;;;;;;8328610;28;20825;-57
2022/09/06 02:31:57;;;;;;;2.13;1.50;;;;;;;;;;8326792;28;20656;-56
2022/09/06 02:36:02;;;;;;;2.67;1.38;;;;;;;;;;8330109;28;20278;-57
2022/09/06 02:40:02;;;;;;;2.38;1.40;;;;;;;;;;8321568;28;20959;-59
2022/09/06 02:44:03;;;;;;;1.52;1.23;;;;;;;;;;8326680;28;20507;-58
2022/09/06 02:48:03;;;;;;;1.50;1.40;;;;;;;;;;8329131;28;20068;-57
2022/09/06 02:52:03;;;;;;;1.53;1.27;;;;;;;;;;8325911;28;20020;-57
2022/09/06 02:56:03;;;;;;;2.08;1.30;;;;;;;;;;8329342;28;20525;-57
2022/09/06 03:00:04;;;;;;;1.98;1.40;;;;;;;;;;8325292;28;20108;-56
2022/09/06 03:04:04;;;;;;;1.73;1.35;;;;;;;;;;8325636;28;20025;-59
2022/09/06 03:08:05;;;;;;;2.60;1.50;;;;;;;;;;8328028;28;20024;-56
2022/09/06 03:12:05;;;;;;;2.17;1.38;;;;;;;;;;8326352;28;20358;-57
2022/09/06 03:16:05;;;;;;;1.70;1.40;;;;;;;;;;8326213;28;20033;-57
2022/09/06 03:20:08;;;;;;;1.63;0.90;;;;;;;;;;8324961;28;20069;-58
2022/09/06 03:24:08;;;;;;;2.25;1.40;;;;;;;;;;8325349;28;20027;-57
2022/09/06 03:28:08;;;;;;;1.10;1.10;;;;;;;;;;8327784;28;20028;-58
2022/09/06 03:32:09;;;;;;;1.57;1.07;;;;;;;;;;8326560;28;20283;-57
2022/09/06 03:36:09;;;;;;;1.80;1.20;;;;;;;;;;8326091;28;20275;-59
2022/09/06 03:40:10;;;;;;;1.95;1.10;;;;;;;;;;8324712;28;20044;-57
2022/09/06 03:44:10;;;;;;;1.80;0.98;;;;;;;;;;8324543;28;20021;-58
2022/09/06 03:48:10;;;;;;;1.15;0.90;;;;;;;;;;8325919;28;20047;-57
2022/09/06 03:52:11;;;;;;;1.30;0.90;;;;;;;;;;8325069;28;20065;-58
2022/09/06 03:56:11;;;;;;;2.78;1.00;;;;;;;;;;8324419;28;20304;-58
2022/09/06 04:00:11;;;;;;;1.00;0.98;;;;;;;;;;8326836;28;20043;-57
2022/09/06 04:04:12;;;;;;;1.20;1.00;;;;;;;;;;8325173;28;20092;-57
2022/09/06 04:08:12;;;;;;;1.00;0.90;;;;;;;;;;8326092;28;20028;-57
2022/09/06 04:12:12;;;;;;;1.20;0.82;;;;;;;;;;8326919;28;20025;-57
2022/09/06 04:16:13;;;;;;;2.83;0.93;;;;;;;;;;8325365;28;20067;-57
2022/09/06 04:20:13;;;;;;;0.80;0.80;;;;;;;;;;8324195;28;20035;-58
2022/09/06 04:24:14;;;;;;;0.75;0.75;;;;;;;;;;8324742;28;20637;-56
2022/09/06 04:28:14;;;;;;;2.33;1.10;;;;;;;;;;8324448;28;20480;-58
2022/09/06 04:32:15;;;;;;;1.10;1.00;;;;;;;;;;8323603;28;20034;-57
2022/09/06 04:36:15;;;;;;;1.05;0.95;;;;;;;;;;8324310;28;20353;-59
2022/09/06 04:40:15;;;;;;;1.23;1.00;;;;;;;;;;8327841;28;20025;-57
2022/09/06 04:44:15;;;;;;;1.30;1.20;;;;;;;;;;8334103;28;20374;-59
2022/09/06 04:48:16;;;;;;;2.03;1.20;;;;;;;;;;8328543;28;20032;-59
2022/09/06 04:52:16;;;;;;;2.92;1.23;;;;;;;;;;8330765;28;20104;-59
2022/09/06 04:56:20;;;;;;;1.17;1.17;;;;;;;;;;8328933;28;20028;-59
2022/09/06 05:00:21;;;;;;;1.98;1.10;;;;;;;;;;8330018;28;20318;-58
2022/09/06 05:04:21;;;;;;;1.23;1.10;;;;;;;;;;8330604;28;20018;-57
2022/09/06 05:08:21;;;;;;;1.40;1.27;;;;;;;;;;8329373;28;20285;-62
2022/09/06 05:12:21;;;;;;;2.50;1.40;;;;;;;;;;8330348;28;20836;-57
2022/09/06 05:16:22;;;;;;;2.83;1.45;;;;;;;;;;8331135;28;20033;-59
2022/09/06 05:20:22;;;;;;;2.40;1.40;;;;;;;;;;8327590;28;20107;-57
2022/09/06 05:24:22;;;;;;;2.78;1.15;;;;;;;;;;8330874;28;20025;-57
2022/09/06 05:28:22;;;;;;;1.40;1.20;;;;;;;;;;8331259;28;20048;-60
2022/09/06 05:32:23;;;;;;;1.30;1.20;;;;;;;;;;8327086;28;20041;-57
2022/09/06 05:36:24;;;;;;;1.10;1.10;;;;;;;;;;8328982;28;20105;-57
2022/09/06 05:40:24;;;;;;;2.58;1.30;;;;;;;;;;8329413;28;20025;-57
2022/09/06 05:44:24;;;;;;;1.23;1.10;;;;;;;;;;8327213;28;20025;-59
2022/09/06 05:48:24;;;;;;;2.22;1.30;;;;;;;;;;8329468;28;20043;-59
2022/09/06 05:52:24;;;;;;;1.58;1.10;;;;;;;;;;8326034;28;20031;-59
2022/09/06 05:56:25;;;;;;;1.00;0.95;;;;;;;;;;8328833;28;20025;-59
2022/09/06 06:00:25;;;;;;;1.40;1.30;;;;;;;;;;8325864;28;20104;-59
2022/09/06 06:04:25;;;;;;;2.50;1.30;;;;;;;;;;8330613;28;20027;-57
2022/09/06 06:08:25;;;;;;;1.10;1.00;;;;;;;;;;8329283;28;20033;-59
2022/09/06 06:12:25;;;;;;;1.17;1.08;;;;;;;;;;8324334;28;20012;-58
2022/09/06 06:16:26;;;;;;;4.20;1.40;;;;;;;;;;8331625;28;20125;-58
2022/09/06 06:20:26;;;;;;;2.80;1.00;;;;;;;;;;8343353;28;20127;-58
2022/09/06 06:24:26;;;;;;;4.43;1.30;;;;;;;;;;8327367;28;21106;-59
2022/09/06 06:28:27;;;;;;;6.67;1.30;;;;;;;;;;8327856;28;20553;-59
2022/09/06 06:32:27;;;;;;;3.30;1.30;;;;;;;;;;8328721;28;20272;-58
2022/09/06 06:36:29;;;;;;;7.63;1.27;;;;;;;;;;8330149;28;20283;-58
2022/09/06 06:40:29;;;;;;;4.53;1.10;;;;;;;;;;8326828;28;20086;-59
2022/09/06 06:44:30;;;;;;;4.10;1.10;;;;;;;;;;8330157;28;20955;-58
2022/09/06 06:48:30;;;;;;;4.20;1.17;;;;;;;;;;8329421;28;20036;-59
2022/09/06 06:52:30;;;;;;;7.10;1.35;;;;;;;;;;8327823;28;20093;-58
2022/09/06 06:56:32;;;;;;;2.47;1.23;;;;;;;;;;8327191;28;20029;-59
2022/09/06 07:00:32;;;;;;;1.92;1.30;;;;;;;;;;8323853;28;20071;-59
2022/09/06 07:04:32;;;;;;;4.43;1.38;;;;;;;;;;8326626;28;20607;-59
2022/09/06 07:08:33;;;;;;;1.90;1.30;;;;;;;;;;8327903;28;20016;-59
2022/09/06 07:12:33;;;;;;;1.63;1.40;;;;;;;;;;8325841;28;20022;-58
2022/09/06 07:16:33;;;;;;;8.85;1.75;;;;;;;;;;8322588;28;20150;-58
2022/09/06 07:20:34;;;;;;;2.78;1.70;;;;;;;;;;8330559;28;20575;-59
2022/09/06 07:24:34;;;;;;;2.65;1.80;;;;;;;;;;8327869;28;20433;-58
2022/09/06 07:28:34;;;;;;;3.50;1.83;;;;;;;;;;8325187;28;20035;-59
2022/09/06 07:32:34;;;;;;;2.35;1.65;;;;;;;;;;8326081;28;20043;-58
2022/09/06 07:36:35;;;;;;;4.85;1.70;;;;;;;;;;8323745;28;20025;-58
2022/09/06 07:40:35;;;;;;;4.10;1.77;;;;;;;;;;8327008;28;20036;-59
2022/09/06 07:44:35;;;;;;;3.30;1.92;;;;;;;;;;8324630;28;20398;-59
2022/09/06 07:48:36;;;;;;;1.90;1.75;;;;;;;;;;8328088;28;20037;-59
2022/09/06 07:52:36;;;;;;;4.18;1.80;;;;;;;;;;8324870;28;20035;-59
2022/09/06 07:56:37;;;;;;;4.30;1.70;;;;;;;;;;8324573;28;20025;-60
2022/09/06 08:00:39;;;;;;;4.10;1.70;;;;;;;;;;8326363;28;20641;-59
2022/09/06 08:04:40;;;;;;;4.15;1.70;;;;;;;;;;8325554;28;20045;-58
2022/09/06 08:08:41;;;;;;;2.33;1.30;;;;;;;;;;8326346;28;20489;-60
2022/09/06 08:12:41;;;;;;;4.10;1.70;;;;;;;;;;8325129;28;20079;-58
2022/09/06 08:16:41;;;;;;;3.00;1.60;;;;;;;;;;8324436;28;20064;-58
2022/09/06 08:20:41;;;;;;;2.67;1.83;;;;;;;;;;8324738;28;20539;-59
2022/09/06 08:24:41;;;;;;;3.50;1.65;;;;;;;;;;8325221;28;20017;-58
2022/09/06 08:28:42;;;;;;;2.57;1.70;;;;;;;;;;8323075;28;20071;-58
2022/09/06 08:32:42;;;;;;;5.03;1.80;;;;;;;;;;8323525;28;20041;-58
2022/09/06 08:36:44;;;;;;;3.13;1.52;;;;;;;;;;8326781;28;20013;-58
2022/09/06 08:40:44;;;;;;;4.00;1.90;;;;;;;;;;8322558;28;20033;-59
2022/09/06 08:44:47;;;;;;;3.42;1.67;;;;;;;;;;8327123;28;20014;-59
2022/09/06 08:48:48;;;;;;;1.50;1.40;;;;;;;;;;8323336;28;20759;-59
2022/09/06 08:52:48;;;;;;;2.75;1.70;;;;;;;;;;8328043;28;20021;-58
2022/09/06 08:56:58;;;;;;;4.95;1.85;;;;;;;;;;8325701;28;20079;-60
2022/09/06 09:01:04;;;;;;;4.88;1.77;;;;;;;;;;8322523;28;20049;-60
2022/09/06 09:05:05;;;;;;;2.13;1.90;;;;;;;;;;8323834;28;20018;-59
2022/09/06 09:09:06;;;;;;;3.15;1.77;;;;;;;;;;8323284;28;20111;-58
2022/09/06 09:13:08;;;;;;;2.80;1.70;;;;;;;;;;8323864;28;20037;-58
2022/09/06 09:17:14;;;;;;;3.55;1.70;;;;;;;;;;8325037;28;20157;-59
2022/09/06 09:21:19;;;;;;;2.67;1.50;;;;;;;;;;8319307;28;20033;-59
2022/09/06 09:25:21;;;;;;;1.88;1.50;;;;;;;;;;8324196;28;20175;-59
2022/09/06 09:29:22;;;;;;;2.47;1.50;;;;;;;;;;8331863;28;20162;-58
2022/09/06 09:33:22;;;;;;;5.03;1.67;;;;;;;;;;8328099;28;20037;-59
2022/09/06 09:37:24;;;;;;;4.05;1.45;;;;;;;;;;8328600;28;20660;-58
2022/09/06 09:41:35;;;;;;;4.47;1.88;;;;;;;;;;8331493;28;20024;-58
2022/09/06 09:45:35;;;;;;;10.75;2.20;;;;;;;;;;8326517;28;20116;-58
2022/09/06 09:49:35;;;;;;;2.88;1.40;;;;;;;;;;8332843;28;20849;-60
2022/09/06 09:53:48;;;;;;;3.25;1.58;;;;;;;;;;8327722;28;20661;-58
2022/09/06 09:57:49;;;;;;;2.78;1.40;;;;;;;;;;8317675;28;20025;-59
2022/09/06 10:01:51;;;;;;;5.03;1.73;;;;;;;;;;8318496;28;20044;-58
2022/09/06 10:05:56;;;;;;;1.73;1.50;;;;;;;;;;8328098;28;20025;-58
2022/09/06 10:10:09;;;;;;;1.92;1.70;;;;;;;;;;8324781;28;20610;-58
2022/09/06 10:14:22;;;;;;;2.47;1.63;;;;;;;;;;8328536;28;20053;-59
2022/09/06 10:18:30;;;;;;;1.77;1.50;;;;;;;;;;8326676;28;20048;-58
2022/09/06 10:22:31;;;;;;;2.63;1.33;;;;;;;;;;8327144;28;20022;-58
2022/09/06 10:26:43;;;;;;;1.73;1.23;;;;;;;;;;8325049;28;20024;-58
2022/09/06 10:31:01;;;;;;;2.55;1.60;;;;;;;;;;8324423;28;20033;-58
2022/09/06 10:35:08;;;;;;;1.70;1.55;;;;;;;;;;8330572;28;20481;-58
2022/09/06 10:39:14;;;;;;;2.92;1.65;;;;;;;;;;8323264;28;20026;-59
2022/09/06 10:43:17;;;;;;;1.48;1.38;;;;;;;;;;8325407;28;20859;-58
2022/09/06 10:47:18;;;;;;;3.30;1.60;;;;;;;;;;8324185;28;20124;-64
2022/09/06 10:51:19;;;;;;;2.30;1.48;;;;;;;;;;8323393;28;20061;-58
2022/09/06 10:55:21;;;;;;;2.63;1.63;;;;;;;;;;8327493;28;20041;-59
2022/09/06 10:59:29;;;;;;;2.45;1.42;;;;;;;;;;8324567;28;20032;-59
2022/09/06 11:03:33;;;;;;;2.78;1.35;;;;;;;;;;8322029;28;20835;-58
2022/09/06 11:07:41;;;;;;;3.13;1.45;;;;;;;;;;8324404;28;20028;-59
2022/09/06 11:11:44;;;;;;;4.03;1.40;;;;;;;;;;8322413;28;20021;-58
2022/09/06 11:15:48;;;;;;;3.05;1.13;;;;;;;;;;8324599;28;20094;-58
2022/09/06 11:20:00;;;;;;;2.33;1.20;;;;;;;;;;8327852;28;20021;-58
2022/09/06 11:24:19;;;;;;;1.73;1.00;;;;;;;;;;8324020;28;20021;-58
2022/09/06 11:28:38;;;;;;;2.95;1.25;;;;;;;;;;8322215;28;20020;-59
2022/09/06 11:32:42;;;;;;;2.30;1.40;;;;;;;;;;8322891;28;20082;-58
2022/09/06 11:36:50;;;;;;;3.13;1.35;;;;;;;;;;8322142;28;20025;-58
2022/09/06 11:45:42;;;;;;;1.95;1.10;;;;;;;;;;8325612;28;20044;-58
2022/09/06 11:49:42;;;;;;;1.73;1.20;;;;;;;;;;8323262;28;20025;-58
2022/09/06 11:53:48;;;;;;;1.37;1.00;;;;;;;;;;8322708;28;20032;-59
2022/09/06 11:57:52;;;;;;;4.35;1.20;;;;;;;;;;8324007;28;20763;-59
2022/09/06 12:02:03;;;;;;;3.45;1.23;;;;;;;;;;8315337;28;20460;-58
2022/09/06 12:06:16;;;;;;;3.63;1.20;;;;;;;;;;8314191;28;20120;-58
2022/09/06 12:10:28;;;;;;;2.35;1.10;;;;;;;;;;8324952;28;20024;-58
2022/09/06 12:14:34;;;;;;;4.40;1.23;;;;;;;;;;8321861;28;20059;-58
2022/09/06 12:18:46;;;;;;;1.45;1.00;;;;;;;;;;8321253;28;20037;-58
2022/09/06 12:22:47;;;;;;;4.30;1.48;;;;;;;;;;8322951;28;20025;-58
2022/09/06 12:26:49;;;;;;;3.08;1.17;;;;;;;;;;8323653;28;20035;-58
2022/09/06 12:30:50;;;;;;;2.13;1.30;;;;;;;;;;8312299;28;20041;-59
2022/09/06 12:34:51;;;;;;;3.03;1.23;;;;;;;;;;8317642;28;20024;-58
2022/09/06 12:39:01;;;;;;;3.72;1.20;;;;;;;;;;8322699;28;20210;-58
2022/09/06 12:43:02;;;;;;;3.20;1.20;;;;;;;;;;8320666;28;20137;-58
2022/09/06 12:47:22;;;;;;;6.00;1.30;;;;;;;;;;8321645;28;20036;-58
2022/09/06 12:51:24;;;;;;;2.20;1.30;;;;;;;;;;8317662;28;20029;-58
2022/09/06 12:55:27;;;;;;;2.30;1.40;;;;;;;;;;8326292;28;20021;-58
2022/09/06 12:59:28;;;;;;;3.22;1.27;;;;;;;;;;8324146;28;20075;-58
2022/09/06 13:03:31;;;;;;;5.47;1.50;;;;;;;;;;8328690;28;20082;-59
2022/09/06 13:07:34;;;;;;;2.40;1.17;;;;;;;;;;8332528;28;20097;-59
2022/09/06 13:11:36;;;;;;;1.75;1.30;;;;;;;;;;8327376;28;20799;-58
2022/09/06 13:15:36;;;;;;;;;;;;;;;;;;8331753;28;20157;-58
2022/09/06 13:19:38;;;;;;;2.42;1.40;;;;;;;;;;8329499;28;19948;-58
2022/09/06 13:23:39;;;;;;;3.08;1.45;;;;;;;;;;8325442;28;20676;-59
2022/09/06 13:27:44;;;;;;;2.13;1.20;;;;;;;;;;8326815;28;20021;-59
2022/09/06 13:31:45;;;;;;;4.13;1.40;;;;;;;;;;8325403;28;20044;-60
2022/09/06 13:35:48;;;;;;;2.53;1.20;;;;;;;;;;8329614;28;20862;-58
2022/09/06 13:39:48;;;;;;;2.70;1.23;;;;;;;;;;8328547;28;20553;-59
2022/09/06 13:43:55;;;;;;;2.83;1.40;;;;;;;;;;8329136;28;20036;-58
2022/09/06 13:47:56;;;;;;;3.65;1.70;;;;;;;;;;8325823;28;20057;-58
2022/09/06 13:52:01;;;;;;;3.78;1.55;;;;;;;;;;8327235;28;20028;-58
2022/09/06 13:56:01;;;;;;;3.33;1.40;;;;;;;;;;8329309;28;20696;-58
2022/09/06 14:00:02;;;;;;;1.92;1.40;;;;;;;;;;8332599;28;20104;-59
2022/09/06 14:04:02;;;;;;;3.90;1.58;;;;;;;;;;8268417;28;20558;-57
2022/09/06 14:08:03;;;;;;;3.05;1.40;;;;;;;;;;8272095;28;20025;-58
2022/09/06 14:12:05;;;;;;;3.83;1.50;;;;;;;;;;8270252;28;20145;-59
2022/09/06 14:16:05;;;;;;;;;;;;;;;;;;8275298;28;20030;-58
2022/09/06 14:20:06;;;;;;;4.43;1.45;;;;;;;;;;8287521;28;20297;-58
2022/09/06 14:24:06;;;;;;;2.72;1.58;;;;;;;;;;8290182;28;20488;-59
2022/09/06 14:28:06;;;;;;;3.90;1.40;;;;;;;;;;8290556;28;20036;-59
2022/09/06 14:32:06;;;;;;;5.72;1.45;;;;;;;;;;8289389;28;20029;-58
2022/09/06 14:36:11;;;;;;;5.15;1.60;;;;;;;;;;8289884;28;20013;-59
2022/09/06 14:40:11;;;;;;;3.15;1.40;;;;;;;;;;8289328;28;20033;-58
2022/09/06 14:44:12;;;;;;;3.70;1.40;;;;;;;;;;8292333;28;20632;-58
2022/09/06 14:48:13;;;;;;;2.63;1.30;;;;;;;;;;8287556;28;20128;-58
2022/09/06 14:52:13;;;;;;;4.03;1.48;;;;;;;;;;8285748;28;20021;-58
2022/09/06 14:56:14;;;;;;;3.28;1.50;;;;;;;;;;8294987;28;20782;-58
2022/09/06 15:00:14;;;;;;;7.13;1.88;;;;;;;;;;8289461;28;20090;-58
2022/09/06 15:04:15;;;;;;;5.22;2.00;;;;;;;;;;8290668;28;20714;-58
2022/09/06 15:08:15;;;;;;;4.18;2.00;;;;;;;;;;8286531;28;20024;-58
2022/09/06 15:12:16;;;;;;;6.10;1.70;;;;;;;;;;8296377;28;20132;-58
2022/09/06 15:16:16;;;;;;;5.65;2.33;;;;;;;;;;8287877;28;20037;-60
2022/09/06 15:20:16;;;;;;;4.10;1.40;;;;;;;;;;8284228;28;20024;-58
2022/09/06 15:24:17;;;;;;;2.20;1.53;;;;;;;;;;8289947;28;20029;-58
2022/09/06 15:28:18;;;;;;;3.43;1.33;;;;;;;;;;8292942;28;20068;-59
2022/09/06 15:32:18;;;;;;;4.63;1.50;;;;;;;;;;8290017;28;20877;-58
2022/09/06 15:36:18;;;;;;;2.10;1.30;;;;;;;;;;8292812;28;20059;-59
2022/09/06 15:40:20;;;;;;;3.22;1.40;;;;;;;;;;8292349;28;20137;-58
2022/09/06 15:44:20;;;;;;;2.10;1.20;;;;;;;;;;8295698;28;20033;-58
2022/09/06 15:48:21;;;;;;;2.63;1.23;;;;;;;;;;8292329;28;20091;-58
2022/09/06 15:52:21;;;;;;;5.97;1.38;;;;;;;;;;8292466;28;20036;-59
2022/09/06 15:56:21;;;;;;;1.67;1.13;;;;;;;;;;8293800;28;20208;-59
2022/09/06 16:00:22;;;;;;;1.57;1.30;;;;;;;;;;8295471;28;20048;-59
2022/09/06 16:04:22;;;;;;;3.30;1.30;;;;;;;;;;8294696;28;20017;-58
2022/09/06 16:08:23;;;;;;;1.93;1.20;;;;;;;;;;8293050;28;20091;-59
2022/09/06 16:12:23;;;;;;;4.18;1.27;;;;;;;;;;8294081;28;20111;-58
2022/09/06 16:16:23;;;;;;;1.55;1.15;;;;;;;;;;8293714;28;20037;-58
2022/09/06 16:20:23;;;;;;;1.92;1.33;;;;;;;;;;8292982;28;20029;-59
2022/09/06 16:24:24;;;;;;;2.40;1.30;;;;;;;;;;8291298;28;20014;-58
2022/09/06 16:28:26;;;;;;;1.55;1.20;;;;;;;;;;8294805;28;20116;-59
2022/09/06 16:32:26;;;;;;;3.92;1.40;;;;;;;;;;8290376;28;20541;-58
2022/09/06 16:36:27;;;;;;;2.78;1.20;;;;;;;;;;8295544;28;20036;-59
2022/09/06 16:40:27;;;;;;;3.60;1.20;;;;;;;;;;8300300;28;20022;-58
2022/09/06 16:44:27;;;;;;;4.22;1.55;;;;;;;;;;8298385;28;20024;-59
2022/09/06 16:48:28;;;;;;;2.47;1.40;;;;;;;;;;8302125;28;20029;-58
2022/09/06 16:52:28;;;;;;;3.10;1.20;;;;;;;;;;8296916;28;20111;-59
2022/09/06 16:56:32;;;;;;;3.35;1.30;;;;;;;;;;8298335;28;20052;-58
2022/09/06 17:00:32;;;;;;;4.80;1.30;;;;;;;;;;8299152;28;20064;-59
2022/09/06 17:04:33;;;;;;;3.22;1.20;;;;;;;;;;8298658;28;20021;-59
2022/09/06 17:08:35;;;;;;;2.88;1.10;;;;;;;;;;8299888;28;20032;-58
2022/09/06 17:12:35;;;;;;;2.95;1.20;;;;;;;;;;8299837;28;20091;-58
2022/09/06 17:20:59;;;;;;;1.30;1.00;;;;;;;;;;8296604;28;20032;-60
2022/09/06 17:25:00;;;;;;;3.25;1.30;;;;;;;;;;8297309;28;20035;-60
2022/09/06 17:29:00;;;;;;;4.78;1.30;;;;;;;;;;8297307;28;20039;-57
2022/09/06 17:33:00;;;;;;;2.28;1.10;;;;;;;;;;8296832;28;20037;-57
2022/09/06 17:37:00;;;;;;;4.10;1.20;;;;;;;;;;8299026;28;20041;-57
2022/09/06 17:41:01;;;;;;;1.50;1.13;;;;;;;;;;8297277;28;20029;-57
2022/09/06 17:45:01;;;;;;;2.33;1.13;;;;;;;;;;8298755;28;20260;-57
2022/09/06 17:49:01;;;;;;;2.03;1.10;;;;;;;;;;8296303;28;20035;-57
2022/09/06 17:53:02;;;;;;;2.55;1.20;;;;;;;;;;8294725;28;20057;-57
2022/09/06 17:57:02;;;;;;;1.93;1.13;;;;;;;;;;8294483;28;20017;-57
2022/09/06 18:01:07;;;;;;;1.33;1.20;;;;;;;;;;8295397;28;20042;-57
2022/09/06 18:05:07;;;;;;;3.10;1.27;;;;;;;;;;8298764;28;20136;-57
2022/09/06 18:09:13;;;;;;;4.60;1.30;;;;;;;;;;8295891;28;20032;-57
2022/09/06 18:13:13;;;;;;;3.15;1.30;;;;;;;;;;8303588;28;20029;-57
2022/09/06 18:17:13;;;;;;;1.23;1.00;;;;;;;;;;8289444;28;20402;-56
2022/09/06 18:21:14;;;;;;;1.87;1.13;;;;;;;;;;8290159;28;20029;-57
2022/09/06 18:25:14;;;;;;;1.25;1.00;;;;;;;;;;8293112;28;20021;-57
2022/09/06 18:29:17;;;;;;;4.10;1.30;;;;;;;;;;8293118;28;20105;-57
2022/09/06 18:33:17;;;;;;;1.20;1.10;;;;;;;;;;8291611;28;20618;-57
2022/09/06 18:37:17;;;;;;;1.00;1.00;;;;;;;;;;8292105;28;20465;-57
2022/09/06 18:45:36;;;;;;;1.70;1.20;;;;;;;;;;8293743;28;20044;-59
2022/09/06 18:49:36;;;;;;;1.30;1.00;;;;;;;;;;8290612;28;20329;-56
2022/09/06 18:53:37;;;;;;;1.55;1.25;;;;;;;;;;8289274;28;20286;-57
2022/09/06 18:57:37;;;;;;;3.45;1.30;;;;;;;;;;8292600;28;20091;-57
2022/09/06 19:01:38;;;;;;;2.25;1.40;;;;;;;;;;8289164;28;20044;-57
2022/09/06 19:05:38;;;;;;;2.50;1.20;;;;;;;;;;8290465;28;20029;-56
2022/09/06 19:09:38;;;;;;;1.50;0.95;;;;;;;;;;8291336;28;20145;-56
2022/09/06 19:13:40;;;;;;;2.47;1.27;;;;;;;;;;8291993;28;20022;-56
2022/09/06 19:17:40;;;;;;;3.22;1.10;;;;;;;;;;8291946;28;20061;-57
2022/09/06 19:21:40;;;;;;;7.25;1.40;;;;;;;;;;8289762;28;20185;-56
2022/09/06 19:25:40;;;;;;;2.05;1.20;;;;;;;;;;8290482;28;20021;-56
2022/09/06 19:29:41;;;;;;;1.98;1.10;;;;;;;;;;8291125;28;20749;-57
2022/09/06 19:33:42;;;;;;;1.95;1.23;;;;;;;;;;8290024;28;20065;-56
2022/09/06 19:37:42;;;;;;;1.83;1.00;;;;;;;;;;8287928;28;20029;-56
2022/09/06 19:41:43;;;;;;;2.97;1.40;;;;;;;;;;8286656;28;20139;-56
2022/09/06 19:45:44;;;;;;;2.40;1.30;;;;;;;;;;8288083;28;20026;-56
2022/09/06 19:49:44;;;;;;;2.55;1.30;;;;;;;;;;8288083;28;20206;-57
2022/09/06 19:53:48;;;;;;;2.38;1.30;;;;;;;;;;8288871;28;20025;-57
2022/09/06 19:57:49;;;;;;;2.92;1.23;;;;;;;;;;8291829;28;20033;-57
2022/09/06 20:01:49;;;;;;;1.87;1.20;;;;;;;;;;8286357;28;20049;-57
2022/09/06 20:05:54;;;;;;;4.67;1.20;;;;;;;;;;8291523;28;20021;-56
2022/09/06 20:09:55;;;;;;;1.48;1.20;;;;;;;;;;8291608;28;21178;-57
2022/09/06 20:13:56;;;;;;;2.08;1.30;;;;;;;;;;8293393;28;20128;-57
2022/09/06 20:17:56;;;;;;;1.27;1.17;;;;;;;;;;8294095;28;20038;-57
2022/09/06 20:21:59;;;;;;;2.30;1.40;;;;;;;;;;8292102;28;20080;-57
2022/09/06 20:26:01;;;;;;;2.75;1.40;;;;;;;;;;8292674;28;20415;-56
2022/09/06 20:30:03;;;;;;;3.13;1.30;;;;;;;;;;8291843;28;20021;-57
2022/09/06 20:34:04;;;;;;;2.05;1.17;;;;;;;;;;8304987;28;20042;-56
2022/09/06 20:38:04;;;;;;;1.83;1.10;;;;;;;;;;8306274;28;20178;-57
2022/09/06 20:42:04;;;;;;;2.20;1.23;;;;;;;;;;8305627;28;20049;-57
2022/09/06 20:46:07;;;;;;;2.73;1.40;;;;;;;;;;8301379;28;20943;-57
2022/09/06 20:50:08;;;;;;;4.75;1.50;;;;;;;;;;8295509;28;20694;-57
2022/09/06 20:54:09;;;;;;;2.63;1.10;;;;;;;;;;8291661;28;20069;-57
2022/09/06 20:58:09;;;;;;;2.45;1.20;;;;;;;;;;8294626;28;20741;-56
2022/09/06 21:02:09;;;;;;;2.92;1.27;;;;;;;;;;8290783;28;20076;-57
2022/09/06 21:06:11;;;;;;;1.30;1.20;;;;;;;;;;8292904;28;20066;-57
2022/09/06 21:10:11;;;;;;;1.15;1.10;;;;;;;;;;8292239;28;21007;-57
2022/09/06 21:14:11;;;;;;;4.20;1.40;;;;;;;;;;8288563;28;20025;-56
2022/09/06 21:18:11;;;;;;;2.63;1.30;;;;;;;;;;8292833;28;20037;-57
2022/09/06 21:22:12;;;;;;;3.60;1.20;;;;;;;;;;8289041;28;20037;-57
2022/09/06 21:26:14;;;;;;;5.57;1.10;;;;;;;;;;8298791;28;20051;-57
2022/09/06 21:30:15;;;;;;;2.97;1.30;;;;;;;;;;8294443;28;20036;-56
2022/09/06 21:34:15;;;;;;;1.95;1.27;;;;;;;;;;8296382;28;20021;-56
2022/09/06 21:38:15;;;;;;;2.70;1.38;;;;;;;;;;8298396;28;20108;-56
2022/09/06 21:42:17;;;;;;;1.10;1.00;;;;;;;;;;8299568;28;20025;-56
2022/09/06 21:46:18;;;;;;;1.92;1.30;;;;;;;;;;8297598;28;20549;-56
2022/09/06 21:50:18;;;;;;;2.63;1.13;;;;;;;;;;8299047;28;20132;-56
2022/09/06 21:54:19;;;;;;;1.48;1.30;;;;;;;;;;8297274;28;20067;-56
2022/09/06 21:58:20;;;;;;;1.55;1.20;;;;;;;;;;8297337;28;20014;-56
2022/09/06 22:02:20;;;;;;;1.98;1.25;;;;;;;;;;8295335;28;20915;-57
2022/09/06 22:06:23;;;;;;;2.75;1.65;;;;;;;;;;8299154;28;20060;-57
2022/09/06 22:10:24;;;;;;;2.80;1.90;;;;;;;;;;8298357;28;20082;-56
2022/09/06 22:14:24;;;;;;;3.20;1.60;;;;;;;;;;8296144;28;20601;-56
2022/09/06 22:18:24;;;;;;;2.00;1.42;;;;;;;;;;8296648;28;20562;-57
2022/09/06 22:22:27;;;;;;;4.88;1.70;;;;;;;;;;8295241;28;20017;-57
2022/09/06 22:26:28;;;;;;;2.35;1.60;;;;;;;;;;8295463;28;20112;-57
2022/09/06 22:30:29;;;;;;;3.88;1.60;;;;;;;;;;8295057;28;20827;-59
2022/09/06 22:34:30;;;;;;;3.53;1.33;;;;;;;;;;8297581;28;20441;-57
2022/09/06 22:38:30;;;;;;;2.63;1.47;;;;;;;;;;8293772;28;20032;-56
2022/09/06 22:42:30;;;;;;;3.10;1.55;;;;;;;;;;8296924;28;20149;-56
2022/09/06 22:46:31;;;;;;;5.38;1.40;;;;;;;;;;8296006;28;20030;-57
2022/09/06 22:50:31;;;;;;;5.32;1.38;;;;;;;;;;8293630;28;20026;-57
2022/09/06 22:54:31;;;;;;;3.10;1.60;;;;;;;;;;8297149;28;20037;-57
2022/09/06 22:58:32;;;;;;;2.65;1.48;;;;;;;;;;8296076;28;20018;-57
2022/09/06 23:02:33;;;;;;;5.20;1.50;;;;;;;;;;8292887;28;20036;-57
2022/09/06 23:06:33;;;;;;;3.13;1.58;;;;;;;;;;8296563;28;20029;-57
2022/09/06 23:10:38;;;;;;;4.60;1.50;;;;;;;;;;8297874;28;20022;-56
2022/09/06 23:14:38;;;;;;;3.55;1.60;;;;;;;;;;8294075;28;20021;-57
2022/09/06 23:18:38;;;;;;;3.13;1.63;;;;;;;;;;8295279;28;20064;-57
2022/09/06 23:22:39;;;;;;;2.95;1.60;;;;;;;;;;8294722;28;20095;-57
2022/09/06 23:26:39;;;;;;;2.78;1.40;;;;;;;;;;8295951;28;20627;-57
2022/09/06 23:30:39;;;;;;;3.33;1.40;;;;;;;;;;8292081;28;20507;-57
2022/09/06 23:34:39;;;;;;;3.03;1.42;;;;;;;;;;8296394;28;20043;-57
2022/09/06 23:38:40;;;;;;;4.53;1.55;;;;;;;;;;8294445;28;20021;-57
2022/09/06 23:42:40;;;;;;;5.30;1.70;;;;;;;;;;8293009;28;20048;-57
2022/09/06 23:46:40;;;;;;;3.25;1.55;;;;;;;;;;8293402;28;20110;-57
2022/09/06 23:50:42;;;;;;;4.90;1.83;;;;;;;;;;8294687;28;20031;-57
2022/09/06 23:54:42;;;;;;;5.65;1.85;;;;;;;;;;8293626;28;20063;-57
2022/09/06 23:58:43;;;;;;;9.40;1.85;;;;;;;;;;8297269;28;20059;-57
